Time;durP1;ratioP1;P1;durP2;ratioP2;P2;SDS_P1;SDS_P2;PMS_P1;PMS_P2;Temp;Humidity;BMP_temperature;BMP_pressure;BME280_temperature;BME280_humidity;BME280_pressure;Samples;Min_cycle;Max_cycle;Signal;HPM_P1;HPM_P2
2021/04/30 00:02:18;;;;;;;21.30;19.40;;;;;;;9.55;70.18;100676.56;6136245;28;20227;-54
2021/04/30 00:05:38;;;;;;;18.23;16.70;;;;;;;9.56;69.57;100672.25;6133532;28;20236;-53
2021/04/30 00:08:59;;;;;;;21.47;19.47;;;;;;;9.61;69.98;100675.66;6140742;28;20676;-52
2021/04/30 00:12:20;;;;;;;19.17;17.57;;;;;;;9.74;69.19;100681.66;6130205;28;20372;-53
2021/04/30 00:15:41;;;;;;;19.37;17.60;;;;;;;9.53;69.51;100683.53;6136135;28;20830;-54
2021/04/30 00:19:02;;;;;;;20.03;18.33;;;;;;;9.69;69.51;100680.81;6122155;28;20523;-52
2021/04/30 00:22:22;;;;;;;19.17;17.43;;;;;;;9.61;69.56;100686.06;6140840;28;20239;-56
2021/04/30 00:25:45;;;;;;;22.00;20.03;;;;;;;9.35;70.66;100689.72;6132165;28;20223;-51
2021/04/30 00:29:06;;;;;;;20.53;18.77;;;;;;;9.43;70.80;100697.47;6135511;28;20326;-51
2021/04/30 00:32:26;;;;;;;21.00;19.20;;;;;;;9.65;70.04;100709.44;6138874;28;20648;-55
2021/04/30 00:35:47;;;;;;;22.40;20.50;;;;;;;9.62;70.05;100703.41;6138184;28;20497;-56
2021/04/30 00:39:07;;;;;;;21.97;20.17;;;;;;;9.75;69.95;100706.75;6142134;28;20240;-54
2021/04/30 00:42:29;;;;;;;23.77;21.67;;;;;;;9.55;70.92;100710.38;6139842;28;20243;-50
2021/04/30 00:45:52;;;;;;;20.50;18.80;;;;;;;9.51;70.69;100716.47;6130742;28;20613;-52
2021/04/30 00:49:13;;;;;;;22.07;20.27;;;;;;;9.45;70.28;100716.50;6143805;28;20219;-54
2021/04/30 00:52:36;;;;;;;21.73;19.93;;;;;;;9.46;70.47;100713.06;6134874;28;20246;-53
2021/04/30 00:55:56;;;;;;;22.73;20.83;;;;;;;9.65;70.44;100721.56;6142213;28;20223;-56
2021/04/30 00:59:17;;;;;;;22.20;20.30;;;;;;;9.70;69.99;100729.34;6141728;28;20239;-54
2021/04/30 01:02:39;;;;;;;24.33;21.97;;;;;;;9.70;70.08;100731.97;6135910;28;20937;-49
2021/04/30 01:05:59;;;;;;;22.63;20.77;;;;;;;9.72;69.64;100735.41;6141876;28;20223;-54
2021/04/30 01:09:20;;;;;;;22.73;20.83;;;;;;;9.79;69.32;100737.97;6141771;28;20227;-50
2021/04/30 01:12:42;;;;;;;21.97;20.17;;;;;;;9.83;69.30;100749.22;6140387;28;20231;-51
2021/04/30 01:16:04;;;;;;;23.17;21.03;;;;;;;9.69;70.01;100751.03;6139870;28;20235;-54
2021/04/30 01:19:25;;;;;;;21.73;19.87;;;;;;;9.88;69.16;100763.03;6135032;28;20617;-54
2021/04/30 01:22:48;;;;;;;24.97;22.67;;;;;;;9.83;69.66;100762.22;6132827;28;20270;-51
2021/04/30 01:26:09;;;;;;;23.33;21.43;;;;;;;9.80;69.51;100770.03;6139944;28;20231;-53
2021/04/30 01:29:29;;;;;;;22.43;20.47;;;;;;;9.75;69.41;100772.66;6137786;28;20716;-54
2021/04/30 01:32:51;;;;;;;23.73;21.80;;;;;;;9.86;69.40;100780.38;6138217;28;20239;-56
2021/04/30 01:36:11;;;;;;;25.23;23.17;;;;;;;9.65;70.08;100777.06;6128121;28;20609;-52
2021/04/30 01:39:32;;;;;;;25.93;23.67;;;;;;;9.80;69.50;100785.63;6137342;28;20240;-55
2021/04/30 01:42:57;;;;;;;23.07;21.17;;;;;;;9.75;69.80;100792.59;6140211;28;20223;-51
2021/04/30 01:46:17;;;;;;;23.50;21.40;;;;;;;9.85;69.19;100800.34;6140686;28;20239;-54
2021/04/30 01:49:38;;;;;;;25.03;22.93;;;;;;;9.79;69.80;100800.38;6134808;28;20223;-54
2021/04/30 01:52:58;;;;;;;23.80;21.73;;;;;;;9.98;68.69;100805.44;6140476;28;20234;-54
2021/04/30 01:56:20;;;;;;;22.80;20.87;;;;;;;9.98;68.90;100806.34;6133953;28;20242;-53
2021/04/30 01:59:40;;;;;;;23.13;21.30;;;;;;;9.88;69.06;100815.03;6140879;28;20224;-54
2021/04/30 02:03:00;;;;;;;25.27;22.80;;;;;;;10.03;68.37;100817.56;6139207;28;20574;-54
2021/04/30 02:06:22;;;;;;;25.80;23.37;;;;;;;10.11;68.58;100807.09;6137838;28;20223;-53
2021/04/30 02:09:43;;;;;;;24.27;22.10;;;;;;;9.94;69.08;100809.81;6132065;28;20231;-52
2021/04/30 02:13:05;;;;;;;24.77;22.57;;;;;;;9.86;69.87;100819.41;6121576;28;20235;-54
2021/04/30 02:16:26;;;;;;;26.33;23.87;;;;;;;9.86;69.63;100828.06;6137141;28;20540;-51
2021/04/30 02:19:46;;;;;;;22.77;20.67;;;;;;;9.94;69.05;100830.63;6139856;28;20561;-56
2021/04/30 02:23:08;;;;;;;24.70;22.60;;;;;;;9.86;69.08;100841.06;6141382;28;20239;-55
2021/04/30 02:26:29;;;;;;;24.60;22.40;;;;;;;9.53;69.59;100838.66;6136802;28;20239;-57
2021/04/30 02:29:50;;;;;;;23.50;21.37;;;;;;;9.76;69.33;100841.13;6138791;28;20258;-57
2021/04/30 02:33:12;;;;;;;24.67;22.37;;;;;;;9.97;68.46;100842.75;6137460;28;20701;-54
2021/04/30 02:36:32;;;;;;;25.00;22.90;;;;;;;9.71;69.37;100840.28;6137390;28;20231;-54
2021/04/30 02:39:53;;;;;;;23.77;21.80;;;;;;;9.87;68.37;100841.94;6128860;28;20235;-53
2021/04/30 02:43:16;;;;;;;25.27;23.23;;;;;;;9.70;68.79;100842.03;6139447;28;20271;-56
2021/04/30 02:46:37;;;;;;;40.33;36.40;;;;;;;9.70;69.19;100846.38;6653295;23;20222;-53
2021/04/30 02:49:59;;;;;;;29.83;27.23;;;;;;;9.84;68.85;100853.22;6129554;28;20643;-54
2021/04/30 02:53:19;;;;;;;25.80;23.47;;;;;;;9.66;69.54;100851.59;6113852;28;20243;-52
2021/04/30 02:56:40;;;;;;;39.70;35.93;;;;;;;9.71;69.84;100856.75;6132606;28;20575;-54
2021/04/30 03:00:00;;;;;;;28.10;25.80;;;;;;;9.75;68.74;100852.41;6133114;28;20322;-55
2021/04/30 03:03:21;;;;;;;24.93;22.77;;;;;;;9.75;69.06;100855.00;6126357;28;20238;-52
2021/04/30 03:06:42;;;;;;;22.60;20.60;;;;;;;9.77;68.90;100858.47;6130037;28;20264;-55
2021/04/30 03:10:04;;;;;;;23.00;21.10;;;;;;;9.85;68.32;100869.72;6133648;28;20310;-54
2021/04/30 03:13:24;;;;;;;23.87;21.57;;;;;;;9.46;70.21;100874.22;6135014;28;21085;-54
2021/04/30 03:16:45;;;;;;;23.73;21.73;;;;;;;9.50;69.87;100875.94;6136969;28;21563;-53
2021/04/30 03:20:08;;;;;;;39.67;36.10;;;;;;;9.78;68.57;100886.22;6139001;28;20582;-51
2021/04/30 03:23:28;;;;;;;32.57;29.67;;;;;;;9.79;68.65;100888.81;6136485;28;20239;-55
2021/04/30 03:26:49;;;;;;;22.53;20.63;;;;;;;9.88;68.31;100892.22;6135429;28;20235;-55
2021/04/30 03:30:11;;;;;;;24.47;22.47;;;;;;;9.76;68.80;100898.34;6135845;28;20247;-54
2021/04/30 03:33:31;;;;;;;22.53;20.57;;;;;;;9.80;68.88;100900.06;6147223;28;20299;-54
2021/04/30 03:36:53;;;;;;;22.43;20.43;;;;;;;10.01;67.82;100909.50;6139065;28;20239;-53
2021/04/30 03:40:15;;;;;;;21.23;19.47;;;;;;;9.96;67.72;100912.13;6132965;28;20227;-55
2021/04/30 03:43:35;;;;;;;20.10;18.30;;;;;;;9.91;67.93;100911.28;6129647;28;20323;-54
2021/04/30 03:46:55;;;;;;;20.80;18.80;;;;;;;9.69;67.89;100922.66;6135744;28;20330;-55
2021/04/30 03:50:15;;;;;;;19.60;17.70;;;;;;;9.72;68.10;100928.72;6106667;29;20232;-56
2021/04/30 03:53:37;;;;;;;20.13;18.33;;;;;;;9.77;67.98;100932.16;6110837;28;20240;-52
2021/04/30 03:56:58;;;;;;;19.50;17.83;;;;;;;9.83;67.74;100933.88;6119146;29;20231;-55
2021/04/30 04:00:20;;;;;;;20.43;18.53;;;;;;;9.66;67.67;100933.94;6117009;29;20252;-54
2021/04/30 04:03:40;;;;;;;20.20;18.33;;;;;;;9.86;66.61;100944.25;6113680;29;20235;-55
2021/04/30 04:07:00;;;;;;;17.93;16.33;;;;;;;9.78;67.33;100951.22;6113485;29;20570;-53
2021/04/30 04:10:22;;;;;;;19.27;17.67;;;;;;;9.37;68.46;100960.00;6119882;28;20293;-52
2021/04/30 04:13:42;;;;;;;17.50;16.03;;;;;;;9.68;67.68;100955.59;6116056;28;20594;-56
2021/04/30 04:17:03;;;;;;;18.63;17.03;;;;;;;9.87;66.71;100959.00;6116013;28;20231;-56
2021/04/30 04:20:24;;;;;;;17.90;16.40;;;;;;;10.03;66.14;100960.66;6118602;29;20240;-52
2021/04/30 04:23:44;;;;;;;20.03;18.33;;;;;;;10.04;66.52;100971.91;6105686;28;20621;-55
2021/04/30 04:27:06;;;;;;;21.73;19.83;;;;;;;9.83;67.42;100967.69;6117073;28;21037;-50
2021/04/30 04:30:27;;;;;;;22.43;20.33;;;;;;;9.69;68.45;100974.66;6120525;29;20267;-53
2021/04/30 04:33:48;;;;;;;21.40;19.33;;;;;;;9.81;67.78;100975.50;6116068;29;20231;-53
2021/04/30 04:37:09;;;;;;;22.57;20.47;;;;;;;9.96;67.21;100982.34;6113732;29;20251;-53
2021/04/30 04:40:29;;;;;;;21.47;19.67;;;;;;;9.98;66.96;100982.34;6119492;29;20268;-56
2021/04/30 04:43:51;;;;;;;21.60;19.70;;;;;;;10.15;66.80;100995.31;6114761;29;20331;-52
2021/04/30 04:47:11;;;;;;;24.70;20.57;;;;;;;10.17;66.40;100993.56;6119073;28;20231;-55
2021/04/30 04:50:31;;;;;;;23.43;21.33;;;;;;;10.25;66.55;100997.00;6113926;29;20228;-52
2021/04/30 04:53:51;;;;;;;22.23;20.27;;;;;;;9.86;67.07;100999.72;6112528;28;20517;-49
2021/04/30 04:57:12;;;;;;;23.33;21.30;;;;;;;10.08;66.68;100994.47;6114578;29;20233;-56
2021/04/30 05:00:33;;;;;;;23.70;21.47;;;;;;;10.17;66.38;100998.78;6113066;29;20319;-55
2021/04/30 05:03:54;;;;;;;25.00;22.57;;;;;;;10.10;67.21;101002.25;6114202;28;20553;-56
2021/04/30 05:07:14;;;;;;;23.40;21.17;;;;;;;10.13;66.85;101002.25;6112277;29;20232;-54
2021/04/30 05:10:34;;;;;;;25.50;23.37;;;;;;;10.13;66.89;101010.91;6102484;29;20428;-55
2021/04/30 05:13:54;;;;;;;24.73;22.57;;;;;;;10.20;66.53;101016.97;6111340;28;20269;-55
2021/04/30 05:17:16;;;;;;;25.27;22.87;;;;;;;10.19;66.24;101017.84;6114001;29;20232;-54
2021/04/30 05:20:37;;;;;;;24.53;22.53;;;;;;;10.18;66.53;101026.53;6114973;28;20243;-51
2021/04/30 05:23:59;;;;;;;26.23;23.97;;;;;;;10.20;67.34;101033.47;6111390;29;20332;-55
2021/04/30 05:27:20;;;;;;;25.83;23.63;;;;;;;10.29;66.93;101029.94;6113839;29;20593;-54
2021/04/30 05:30:40;;;;;;;26.83;24.33;;;;;;;10.31;65.76;101038.63;6113254;28;20231;-49
2021/04/30 05:34:02;;;;;;;27.10;24.87;;;;;;;10.16;66.65;101038.69;6109797;29;20231;-52
2021/04/30 05:37:22;;;;;;;27.07;24.70;;;;;;;10.11;66.34;101040.44;6109521;28;20224;-57
2021/04/30 05:40:43;;;;;;;27.27;24.77;;;;;;;10.33;66.06;101036.91;6115708;28;20235;-56
2021/04/30 05:44:04;;;;;;;24.90;22.80;;;;;;;10.39;65.36;101043.81;6113002;29;20240;-58
2021/04/30 05:47:25;;;;;;;27.37;24.93;;;;;;;10.62;64.82;101039.38;6110505;28;20712;-59
2021/04/30 05:50:46;;;;;;;25.97;23.77;;;;;;;10.78;64.37;101044.50;6112009;28;20263;-58
2021/04/30 05:54:07;;;;;;;27.37;24.87;;;;;;;10.81;64.57;101050.53;6105440;28;20642;-55
2021/04/30 05:57:28;;;;;;;26.33;24.13;;;;;;;10.49;65.40;101055.03;6113218;28;20277;-56
2021/04/30 06:00:48;;;;;;;27.57;25.23;;;;;;;10.53;65.65;101065.44;6112414;28;20267;-54
2021/04/30 06:04:09;;;;;;;24.57;22.37;;;;;;;10.64;64.95;101073.19;6110939;29;20267;-58
2021/04/30 06:07:30;;;;;;;26.87;24.17;;;;;;;10.89;63.60;101063.50;6127413;28;20232;-56
2021/04/30 06:10:51;;;;;;;24.97;22.77;;;;;;;10.97;64.02;101068.66;6111611;29;20258;-54
2021/04/30 06:14:12;;;;;;;25.07;22.87;;;;;;;10.97;63.33;101082.56;6112088;29;20243;-54
2021/04/30 06:17:33;;;;;;;26.23;23.83;;;;;;;10.77;63.94;101085.28;6113221;28;20649;-58
2021/04/30 06:20:53;;;;;;;27.53;24.97;;;;;;;10.56;64.92;101090.59;6114882;29;20327;-58
2021/04/30 06:24:14;;;;;;;25.17;22.93;;;;;;;10.88;63.93;101093.06;6111855;28;20625;-56
2021/04/30 06:27:36;;;;;;;25.97;23.67;;;;;;;10.94;63.06;101099.97;6118172;29;20235;-60
2021/04/30 06:30:57;;;;;;;26.67;24.27;;;;;;;10.87;63.74;101100.88;6110886;29;20260;-56
2021/04/30 06:34:17;;;;;;;27.57;25.03;;;;;;;10.80;64.73;101100.91;6107939;28;20232;-57
2021/04/30 06:37:39;;;;;;;21.87;20.00;;;;;;;11.21;63.12;101106.75;6102629;29;20243;-57
2021/04/30 06:41:00;;;;;;;23.13;20.83;;;;;;;11.34;61.91;101123.13;6112300;28;20236;-55
2021/04/30 06:44:20;;;;;;;21.47;19.67;;;;;;;11.36;60.90;101121.38;6108669;29;20231;-53
2021/04/30 06:47:41;;;;;;;21.77;19.83;;;;;;;11.50;60.62;101126.53;6114009;28;20526;-55
2021/04/30 06:51:01;;;;;;;22.80;20.73;;;;;;;11.68;59.36;101128.09;6110242;29;20227;-55
2021/04/30 06:54:22;;;;;;;20.97;19.27;;;;;;;11.47;60.19;101123.94;6114103;28;20236;-58
2021/04/30 06:57:43;;;;;;;20.40;18.43;;;;;;;11.80;58.12;101128.00;6110451;28;20240;-55
2021/04/30 07:01:04;;;;;;;20.67;18.93;;;;;;;11.95;59.21;101133.09;6117631;28;20228;-53
2021/04/30 07:04:24;;;;;;;20.77;18.97;;;;;;;11.86;59.33;101140.97;6112806;29;20239;-53
2021/04/30 07:07:45;;;;;;;22.27;20.33;;;;;;;12.26;58.43;101148.44;6115968;29;20243;-53
2021/04/30 07:11:07;;;;;;;20.13;18.53;;;;;;;12.35;58.02;101145.75;6115623;29;20231;-54
2021/04/30 07:14:28;;;;;;;18.27;16.77;;;;;;;12.47;57.32;101157.81;6112915;28;20315;-56
2021/04/30 07:17:50;;;;;;;21.20;19.50;;;;;;;12.32;57.22;101155.34;6110193;29;20263;-52
2021/04/30 07:21:10;;;;;;;19.40;17.80;;;;;;;11.95;58.53;101156.59;6115400;28;20255;-56
2021/04/30 07:24:31;;;;;;;20.73;18.83;;;;;;;11.80;59.72;101160.16;6119999;28;20240;-50
2021/04/30 07:27:52;;;;;;;21.77;19.77;;;;;;;11.91;59.02;101167.94;6114378;29;20236;-55
2021/04/30 07:31:13;;;;;;;21.93;20.10;;;;;;;11.94;58.77;101167.91;6114754;28;20326;-55
2021/04/30 07:34:33;;;;;;;19.43;17.63;;;;;;;11.96;58.34;101174.00;6119331;29;20779;-57
2021/04/30 07:37:54;;;;;;;19.40;17.67;;;;;;;11.71;58.83;101175.03;6115219;28;20243;-56
2021/04/30 07:41:15;;;;;;;21.93;20.13;;;;;;;11.75;58.96;101181.97;6116960;28;20236;-57
2021/04/30 07:44:35;;;;;;;20.83;19.10;;;;;;;11.47;59.89;101189.97;6114179;29;20239;-57
2021/04/30 07:47:56;;;;;;;19.90;18.17;;;;;;;11.53;60.20;101199.50;6113691;29;20646;-55
2021/04/30 07:51:17;;;;;;;19.27;17.60;;;;;;;11.71;59.26;101188.06;6117449;28;20227;-51
2021/04/30 07:54:38;;;;;;;19.43;17.73;;;;;;;11.73;59.55;101192.41;6116287;28;20251;-56
2021/04/30 07:57:58;;;;;;;19.30;17.40;;;;;;;11.67;59.40;101199.41;6116526;28;20239;-56
2021/04/30 08:01:19;;;;;;;18.53;16.87;;;;;;;11.93;59.11;101192.28;6117486;28;20506;-57
2021/04/30 08:04:40;;;;;;;16.40;14.90;;;;;;;12.41;56.86;101192.69;6108940;29;20236;-57
2021/04/30 08:08:04;;;;;;;17.13;15.73;;;;;;;12.62;55.62;101206.41;6117150;29;21436;-57
2021/04/30 08:11:24;;;;;;;14.83;13.53;;;;;;;12.73;55.08;101209.75;6110051;29;20759;-56
2021/04/30 08:14:45;;;;;;;16.77;15.17;;;;;;;12.83;54.05;101214.88;6113305;29;20358;-56
2021/04/30 08:18:06;;;;;;;13.40;12.30;;;;;;;12.75;54.16;101217.56;6115386;29;20255;-53
2021/04/30 08:21:27;;;;;;;13.77;12.60;;;;;;;13.16;53.80;101211.84;6117855;28;20240;-56
2021/04/30 08:24:48;;;;;;;12.70;11.60;;;;;;;13.35;52.69;101216.81;6116504;28;20285;-56
2021/04/30 08:28:08;;;;;;;14.43;13.23;;;;;;;13.17;53.18;101223.16;6117439;29;20244;-56
2021/04/30 08:31:29;;;;;;;14.10;13.00;;;;;;;13.23;52.19;101227.44;6111774;28;20247;-57
2021/04/30 08:34:49;;;;;;;11.80;10.83;;;;;;;13.48;51.51;101220.16;6119129;29;20236;-57
2021/04/30 08:38:10;;;;;;;12.27;10.97;;;;;;;13.08;52.11;101233.72;6118092;29;20512;-57
2021/04/30 08:41:35;;;;;;;11.70;10.70;;;;;;;13.41;52.26;101227.19;6116313;28;20260;-58
2021/04/30 08:44:55;;;;;;;12.83;11.73;;;;;;;13.18;52.47;101225.75;6114458;28;20330;-57
2021/04/30 08:48:15;;;;;;;12.50;11.50;;;;;;;12.82;53.24;101229.69;6101706;29;20248;-57
2021/04/30 08:51:38;;;;;;;11.63;10.60;;;;;;;12.82;53.09;101223.59;6116491;29;20235;-56
2021/04/30 08:55:04;;;;;;;10.43;9.43;;;;;;;12.88;52.87;101231.38;6109215;28;20232;-55
2021/04/30 08:58:26;;;;;;;10.80;10.00;;;;;;;12.25;54.26;101230.25;6115158;29;20235;-57
2021/04/30 09:01:47;;;;;;;11.30;10.20;;;;;;;12.35;54.30;101228.47;6114656;28;20236;-58
2021/04/30 09:05:10;;;;;;;12.93;11.93;;;;;;;12.69;54.64;101231.56;6117519;29;20906;-55
2021/04/30 09:08:44;;;;;;;10.90;9.90;;;;;;;12.57;54.50;101236.94;6106553;28;20561;-54
2021/04/30 09:12:15;;;;;;;6.60;5.97;;;;;;;13.93;59.65;101231.63;6111599;28;20240;-59
2021/04/30 09:15:36;;;;;;;12.07;10.93;;;;;;;14.05;50.09;101241.03;6107943;28;20231;-55
2021/04/30 09:18:56;;;;;;;10.07;9.23;;;;;;;14.24;49.26;101241.59;6106383;28;20461;-59
2021/04/30 09:22:18;;;;;;;9.63;8.93;;;;;;;13.62;49.77;101243.47;6116438;29;20263;-57
2021/04/30 09:25:44;;;;;;;9.47;8.60;;;;;;;14.14;49.37;101246.13;6105852;29;20236;-58
2021/04/30 09:29:08;;;;;;;9.17;8.47;;;;;;;14.51;47.78;101242.00;6113105;29;20232;-58
2021/04/30 09:32:28;;;;;;;8.70;7.90;;;;;;;14.61;47.57;101246.19;6107640;29;20514;-59
2021/04/30 09:35:51;;;;;;;10.97;10.07;;;;;;;14.38;48.61;101250.09;6113819;29;20642;-55
2021/04/30 09:39:11;;;;;;;10.43;9.53;;;;;;;14.02;49.10;101248.09;6116687;29;20626;-53
2021/04/30 09:42:33;;;;;;;10.13;8.80;;;;;;;13.77;51.01;101251.97;6116777;29;20235;-56
2021/04/30 09:45:55;;;;;;;10.37;9.57;;;;;;;13.66;50.88;101247.78;6108545;28;20236;-54
2021/04/30 09:49:16;;;;;;;10.40;9.53;;;;;;;13.91;50.40;101238.66;6114725;28;20243;-57
2021/04/30 09:52:37;;;;;;;11.93;9.73;;;;;;;13.87;50.70;101247.44;6103388;28;20239;-58
2021/04/30 09:56:02;;;;;;;11.73;10.63;;;;;;;13.90;50.18;101244.78;6116122;29;20519;-56
2021/04/30 09:59:23;;;;;;;12.30;10.37;;;;;;;13.91;50.42;101237.78;6111576;29;20227;-55
2021/04/30 10:02:46;;;;;;;11.53;10.73;;;;;;;13.69;50.89;101239.91;6107512;28;20565;-55
2021/04/30 10:06:12;;;;;;;12.27;11.27;;;;;;;13.97;50.46;101235.06;6117957;28;20252;-58
2021/04/30 10:09:35;;;;;;;12.03;10.83;;;;;;;13.99;50.26;101238.53;6113959;29;20231;-55
2021/04/30 10:12:57;;;;;;;10.93;10.03;;;;;;;13.84;49.74;101239.66;6114036;29;20257;-53
2021/04/30 10:16:18;;;;;;;11.20;10.10;;;;;;;14.17;49.07;101243.47;6112534;29;20231;-54
2021/04/30 10:19:39;;;;;;;9.43;8.73;;;;;;;14.28;48.66;101235.41;6102780;29;20878;-55
2021/04/30 10:23:02;;;;;;;12.13;11.03;;;;;;;14.64;48.12;101246.16;6113569;29;20240;-54
2021/04/30 10:26:23;;;;;;;10.60;9.77;;;;;;;15.51;45.66;101232.97;6115286;28;20236;-56
2021/04/30 10:29:51;;;;;;;10.60;9.73;;;;;;;16.33;45.12;101234.47;6112928;29;20227;-58
2021/04/30 10:33:17;;;;;;;10.10;9.17;;;;;;;16.72;42.14;101238.69;6112928;28;20814;-55
2021/04/30 10:36:44;;;;;;;10.07;9.07;;;;;;;16.57;42.24;101234.72;6113388;28;20264;-58
2021/04/30 10:40:07;;;;;;;10.40;9.60;;;;;;;14.80;43.28;101230.97;6113273;29;20235;-54
2021/04/30 10:43:28;;;;;;;9.60;8.87;;;;;;;13.60;46.95;101238.28;6113717;28;20264;-56
2021/04/30 10:46:50;;;;;;;10.83;9.93;;;;;;;14.37;45.76;101227.38;6111286;29;20235;-58
2021/04/30 10:50:16;;;;;;;9.33;8.63;;;;;;;15.05;43.89;101230.50;6111512;29;22314;-54
2021/04/30 10:53:38;;;;;;;9.43;8.57;;;;;;;14.72;44.41;101228.50;6111518;29;20322;-56
2021/04/30 10:57:00;;;;;;;10.07;9.27;;;;;;;15.84;42.68;101227.84;6105498;29;20240;-54
2021/04/30 11:00:26;;;;;;;9.73;8.93;;;;;;;15.65;42.75;101231.78;6113258;28;20259;-55
2021/04/30 11:04:11;;;;;;;8.93;8.33;;;;;;;15.81;42.65;101230.53;6113516;29;20239;-55
2021/04/30 11:07:34;;;;;;;8.67;8.07;;;;;;;15.21;43.91;101238.88;6110677;29;20594;-55
2021/04/30 11:11:04;;;;;;;8.70;8.10;;;;;;;14.98;44.81;101240.22;6112293;29;20244;-57
2021/04/30 11:14:38;;;;;;;9.63;8.90;;;;;;;14.63;45.24;101248.78;6112402;29;20228;-54
2021/04/30 11:18:00;;;;;;;8.80;8.03;;;;;;;14.55;45.06;101246.28;6113754;28;20266;-55
2021/04/30 11:21:21;;;;;;;9.27;8.57;;;;;;;14.03;45.75;101240.19;6107093;29;20232;-56
2021/04/30 11:24:44;;;;;;;10.77;9.93;;;;;;;13.80;45.96;101243.19;6114372;29;20244;-56
2021/04/30 11:28:06;;;;;;;8.73;8.03;;;;;;;13.97;46.38;101245.53;6114903;29;20553;-54
2021/04/30 11:31:29;;;;;;;8.17;7.57;;;;;;;13.61;47.28;101249.59;6112741;28;20239;-54
2021/04/30 11:34:51;;;;;;;10.53;9.47;;;;;;;13.67;47.39;101250.38;6097985;29;20228;-54
2021/04/30 11:38:16;;;;;;;10.50;9.40;;;;;;;13.96;46.69;101249.94;6106464;28;20232;-55
2021/04/30 11:41:36;;;;;;;9.93;9.20;;;;;;;13.95;46.62;101250.81;6117137;28;20235;-56
2021/04/30 11:44:57;;;;;;;9.30;8.57;;;;;;;14.01;45.95;101251.59;6111448;28;20255;-55
2021/04/30 11:48:22;;;;;;;9.57;8.87;;;;;;;14.02;46.53;101255.97;6105436;29;20892;-49
2021/04/30 11:51:43;;;;;;;8.47;7.83;;;;;;;14.46;45.75;101254.31;6099220;29;20255;-56
2021/04/30 11:55:06;;;;;;;8.77;8.17;;;;;;;14.59;44.18;101253.22;6120873;29;20244;-55
2021/04/30 11:58:37;;;;;;;8.00;7.40;;;;;;;15.09;43.25;101254.00;6125519;28;20322;-52
2021/04/30 12:02:05;;;;;;;7.97;7.37;;;;;;;15.26;42.77;101260.66;6117518;29;20330;-55
2021/04/30 12:05:26;;;;;;;8.27;7.47;;;;;;;15.61;42.36;101252.00;6116646;29;20871;-56
2021/04/30 12:08:50;;;;;;;10.33;9.53;;;;;;;15.35;42.09;101256.06;6112790;29;20323;-56
2021/04/30 12:12:18;;;;;;;10.60;9.70;;;;;;;15.62;42.55;101258.94;6115217;29;20247;-54
2021/04/30 12:15:41;;;;;;;8.47;7.77;;;;;;;15.42;41.56;101264.66;6112676;29;20356;-55
2021/04/30 12:19:03;;;;;;;8.23;7.53;;;;;;;15.92;41.64;101262.66;6115353;29;20239;-55
2021/04/30 12:22:23;;;;;;;9.03;8.40;;;;;;;15.26;42.15;101271.16;6113394;29;20609;-57
2021/04/30 12:25:46;;;;;;;7.77;7.23;;;;;;;15.66;41.84;101265.84;6126283;28;20240;-54
2021/04/30 12:29:07;;;;;;;9.03;8.33;;;;;;;17.54;39.09;101260.88;6121258;29;20235;-56
2021/04/30 12:32:28;;;;;;;8.73;8.13;;;;;;;15.78;40.96;101266.50;6112390;28;20511;-54
2021/04/30 12:35:50;;;;;;;9.23;8.43;;;;;;;16.09;41.10;101259.63;6118832;29;20531;-56
2021/04/30 12:39:12;;;;;;;7.73;7.23;;;;;;;15.79;41.91;101261.22;6113109;29;20239;-55
2021/04/30 12:42:46;;;;;;;8.73;7.87;;;;;;;15.71;42.61;101271.00;6114964;29;20252;-54
2021/04/30 12:46:12;;;;;;;9.37;8.67;;;;;;;15.23;43.36;101273.81;6118507;29;20247;-55
2021/04/30 12:49:35;;;;;;;9.77;8.97;;;;;;;14.27;44.90;101273.00;6119651;29;20824;-51
2021/04/30 12:52:57;;;;;;;9.70;9.00;;;;;;;14.07;45.28;101275.91;6111095;29;20326;-56
2021/04/30 12:56:32;;;;;;;9.77;8.87;;;;;;;13.81;45.96;101283.34;6107276;29;20276;-56
2021/04/30 12:59:59;;;;;;;10.43;9.33;;;;;;;13.28;46.79;101277.91;6122222;28;20235;-50
2021/04/30 13:03:20;;;;;;;10.97;10.07;;;;;;;12.78;47.69;101278.50;6118014;29;20231;-54
2021/04/30 13:06:42;;;;;;;9.73;8.83;;;;;;;13.25;46.79;101275.34;6111555;28;20483;-54
2021/04/30 13:10:04;;;;;;;9.07;8.27;;;;;;;14.17;45.78;101280.13;6113538;28;20232;-56
2021/04/30 13:13:24;;;;;;;9.67;8.67;;;;;;;14.56;44.89;101277.75;6107992;29;20233;-56
2021/04/30 13:16:46;;;;;;;8.57;7.70;;;;;;;14.51;44.58;101276.91;6119609;28;20614;-54
2021/04/30 13:20:27;;;;;;;9.60;8.70;;;;;;;14.28;44.71;101276.47;6113830;29;20240;-55
2021/04/30 13:23:48;;;;;;;8.07;7.23;;;;;;;14.77;51.25;101279.09;6101131;29;20311;-55
2021/04/30 13:27:11;;;;;;;9.23;8.00;;;;;;;14.12;46.01;101263.63;6114266;29;20240;-56
2021/04/30 13:30:39;;;;;;;10.93;10.00;;;;;;;14.47;45.78;101264.78;6110218;28;20322;-56
2021/04/30 13:34:08;;;;;;;9.67;8.97;;;;;;;14.08;45.39;101261.09;6114077;29;20613;-56
2021/04/30 13:37:35;;;;;;;11.07;10.27;;;;;;;13.84;47.74;101276.31;6115700;29;20234;-55
2021/04/30 13:41:09;;;;;;;11.83;10.93;;;;;;;13.25;48.86;101278.81;6106617;29;20236;-51
2021/04/30 13:44:31;;;;;;;11.70;10.70;;;;;;;12.84;50.32;101271.50;6113449;28;20545;-51
2021/04/30 13:47:53;;;;;;;11.30;10.37;;;;;;;13.78;48.18;101260.66;6117456;29;20243;-54
2021/04/30 13:51:15;;;;;;;10.27;9.37;;;;;;;13.34;47.72;101262.19;6116839;29;20228;-56
2021/04/30 13:54:36;;;;;;;11.63;10.73;;;;;;;13.28;47.88;101260.50;6106811;28;20661;-52
2021/04/30 13:57:57;;;;;;;11.10;10.30;;;;;;;13.34;47.52;101256.97;6104299;29;20326;-54
2021/04/30 14:01:19;;;;;;;10.67;9.67;;;;;;;13.75;46.96;101252.88;6109857;28;20232;-56
2021/04/30 14:04:41;;;;;;;12.97;11.97;;;;;;;13.90;46.37;101247.41;6106692;28;20235;-53
2021/04/30 14:08:01;;;;;;;10.87;10.03;;;;;;;14.27;45.33;101245.91;6114124;28;20618;-55
2021/04/30 14:11:22;;;;;;;10.43;9.60;;;;;;;14.46;45.39;101235.97;6114346;29;20240;-53
2021/04/30 14:14:43;;;;;;;10.00;9.20;;;;;;;15.13;43.23;101229.41;6113709;28;20244;-54
2021/04/30 14:18:05;;;;;;;10.33;9.47;;;;;;;15.72;42.50;101223.72;6113576;28;20601;-51
2021/04/30 14:21:25;;;;;;;10.97;10.00;;;;;;;15.65;41.44;101218.66;6113750;28;20255;-54
2021/04/30 14:24:46;;;;;;;11.20;10.30;;;;;;;15.55;42.20;101232.00;6115770;28;20537;-54
2021/04/30 14:28:07;;;;;;;9.50;8.60;;;;;;;16.29;40.76;101230.19;6113421;28;20224;-54
2021/04/30 14:31:27;;;;;;;9.30;8.50;;;;;;;15.76;40.74;101221.94;6102142;29;20239;-52
2021/04/30 14:34:49;;;;;;;8.60;8.00;;;;;;;15.51;42.28;101230.34;6093591;28;20705;-56
2021/04/30 14:38:10;;;;;;;8.37;7.67;;;;;;;16.12;41.08;101229.78;6113917;29;20235;-55
2021/04/30 14:41:31;;;;;;;10.13;9.23;;;;;;;16.09;41.25;101227.22;6110665;29;20236;-58
2021/04/30 14:44:52;;;;;;;12.13;11.13;;;;;;;16.19;40.91;101227.84;6107064;29;20244;-57
2021/04/30 14:48:12;;;;;;;10.20;9.30;;;;;;;15.80;41.78;101223.56;6108379;28;20248;-57
2021/04/30 14:51:33;;;;;;;12.70;11.63;;;;;;;15.79;41.07;101224.47;6106454;28;20243;-56
2021/04/30 14:54:54;;;;;;;13.43;12.33;;;;;;;15.91;40.90;101220.66;6107893;29;20404;-58
2021/04/30 14:58:14;;;;;;;10.73;9.73;;;;;;;15.54;41.02;101225.00;6107547;29;20232;-58
2021/04/30 15:01:38;;;;;;;15.30;13.73;;;;;;;15.85;41.05;101228.69;6106735;29;20268;-56
2021/04/30 15:04:59;;;;;;;11.20;10.33;;;;;;;15.40;40.97;101227.09;6108003;29;20231;-58
2021/04/30 15:08:21;;;;;;;13.20;12.00;;;;;;;15.64;40.64;101227.41;6100891;28;20281;-53
2021/04/30 15:11:42;;;;;;;13.70;12.50;;;;;;;15.39;41.08;101233.22;6107415;28;20236;-60
2021/04/30 15:15:03;;;;;;;14.07;12.97;;;;;;;15.52;40.47;101226.78;6104188;28;20555;-56
2021/04/30 15:18:24;;;;;;;22.57;20.47;;;;;;;15.05;41.65;101226.09;6101788;28;20327;-59
2021/04/30 15:21:44;;;;;;;24.07;21.70;;;;;;;15.32;41.53;101223.78;6108154;28;20244;-58
2021/04/30 15:25:08;;;;;;;23.83;21.73;;;;;;;15.28;40.90;101227.38;6104144;28;20231;-59